sensor_id;sensor_type;location;lat;lon;timestamp;P1;durP1;ratioP1;P2;durP2;ratioP2
59880;SDS011;45751;51.380;10.326;2023-04-06T00:00:57;10.20;;;3.65;;
59880;SDS011;45751;51.380;10.326;2023-04-06T00:03:24;11.25;;;4.43;;
59880;SDS011;45751;51.380;10.326;2023-04-06T00:05:51;8.60;;;3.47;;
59880;SDS011;45751;51.380;10.326;2023-04-06T00:08:18;10.63;;;4.25;;
59880;SDS011;45751;51.380;10.326;2023-04-06T00:10:47;9.93;;;3.53;;
59880;SDS011;45751;51.380;10.326;2023-04-06T00:13:14;10.50;;;4.75;;
59880;SDS011;45751;51.380;10.326;2023-04-06T00:15:41;10.80;;;4.57;;
59880;SDS011;45751;51.380;10.326;2023-04-06T00:18:09;9.55;;;4.03;;
59880;SDS011;45751;51.380;10.326;2023-04-06T00:20:36;8.23;;;3.60;;
59880;SDS011;45751;51.380;10.326;2023-04-06T00:23:03;12.35;;;4.78;;
59880;SDS011;45751;51.380;10.326;2023-04-06T00:25:30;9.70;;;4.00;;
59880;SDS011;45751;51.380;10.326;2023-04-06T00:27:57;9.27;;;3.05;;
59880;SDS011;45751;51.380;10.326;2023-04-06T00:30:25;8.90;;;3.63;;
59880;SDS011;45751;51.380;10.326;2023-04-06T00:32:52;14.27;;;4.88;;
59880;SDS011;45751;51.380;10.326;2023-04-06T00:35:19;7.00;;;3.08;;
59880;SDS011;45751;51.380;10.326;2023-04-06T00:37:46;12.73;;;4.85;;
59880;SDS011;45751;51.380;10.326;2023-04-06T00:40:14;11.68;;;4.25;;
59880;SDS011;45751;51.380;10.326;2023-04-06T00:42:41;10.18;;;4.28;;
59880;SDS011;45751;51.380;10.326;2023-04-06T00:45:09;12.90;;;4.88;;
59880;SDS011;45751;51.380;10.326;2023-04-06T00:47:38;12.52;;;4.65;;
59880;SDS011;45751;51.380;10.326;2023-04-06T00:50:05;12.55;;;4.40;;
59880;SDS011;45751;51.380;10.326;2023-04-06T00:52:33;10.13;;;4.35;;
59880;SDS011;45751;51.380;10.326;2023-04-06T00:55:02;9.52;;;3.80;;
59880;SDS011;45751;51.380;10.326;2023-04-06T00:57:30;7.70;;;3.42;;
59880;SDS011;45751;51.380;10.326;2023-04-06T00:59:58;8.68;;;3.95;;
59880;SDS011;45751;51.380;10.326;2023-04-06T01:02:25;7.85;;;3.47;;
59880;SDS011;45751;51.380;10.326;2023-04-06T01:04:53;8.70;;;2.92;;
59880;SDS011;45751;51.380;10.326;2023-04-06T01:07:38;8.23;;;3.85;;
59880;SDS011;45751;51.380;10.326;2023-04-06T01:10:22;8.63;;;3.35;;
59880;SDS011;45751;51.380;10.326;2023-04-06T01:13:07;9.50;;;3.20;;
59880;SDS011;45751;51.380;10.326;2023-04-06T01:15:48;10.40;;;3.88;;
59880;SDS011;45751;51.380;10.326;2023-04-06T01:18:26;7.07;;;3.42;;
59880;SDS011;45751;51.380;10.326;2023-04-06T01:21:07;9.10;;;3.47;;
59880;SDS011;45751;51.380;10.326;2023-04-06T01:23:35;8.10;;;4.22;;
59880;SDS011;45751;51.380;10.326;2023-04-06T01:26:02;8.88;;;4.22;;
59880;SDS011;45751;51.380;10.326;2023-04-06T01:28:30;12.35;;;3.55;;
59880;SDS011;45751;51.380;10.326;2023-04-06T01:31:08;9.48;;;3.33;;
59880;SDS011;45751;51.380;10.326;2023-04-06T01:36:17;9.23;;;3.80;;
59880;SDS011;45751;51.380;10.326;2023-04-06T01:38:49;10.15;;;3.45;;
59880;SDS011;45751;51.380;10.326;2023-04-06T01:41:20;7.22;;;2.83;;
59880;SDS011;45751;51.380;10.326;2023-04-06T01:43:51;8.40;;;3.92;;
59880;SDS011;45751;51.380;10.326;2023-04-06T01:46:24;7.70;;;3.72;;
59880;SDS011;45751;51.380;10.326;2023-04-06T01:48:52;10.80;;;4.55;;
59880;SDS011;45751;51.380;10.326;2023-04-06T01:51:28;9.65;;;4.03;;
59880;SDS011;45751;51.380;10.326;2023-04-06T01:53:59;7.63;;;3.25;;
59880;SDS011;45751;51.380;10.326;2023-04-06T01:56:45;7.88;;;3.08;;
59880;SDS011;45751;51.380;10.326;2023-04-06T01:59:25;7.32;;;3.92;;
59880;SDS011;45751;51.380;10.326;2023-04-06T02:01:53;7.18;;;3.15;;
59880;SDS011;45751;51.380;10.326;2023-04-06T02:04:23;10.65;;;4.55;;
59880;SDS011;45751;51.380;10.326;2023-04-06T02:06:57;11.77;;;2.83;;
59880;SDS011;45751;51.380;10.326;2023-04-06T02:09:27;7.90;;;3.22;;
59880;SDS011;45751;51.380;10.326;2023-04-06T02:11:54;7.57;;;2.95;;
59880;SDS011;45751;51.380;10.326;2023-04-06T02:14:24;7.55;;;3.45;;
59880;SDS011;45751;51.380;10.326;2023-04-06T02:16:56;8.57;;;2.80;;
59880;SDS011;45751;51.380;10.326;2023-04-06T02:19:23;8.63;;;3.30;;
59880;SDS011;45751;51.380;10.326;2023-04-06T02:21:50;8.35;;;3.40;;
59880;SDS011;45751;51.380;10.326;2023-04-06T02:24:17;7.80;;;2.97;;
59880;SDS011;45751;51.380;10.326;2023-04-06T02:26:44;10.30;;;3.90;;
59880;SDS011;45751;51.380;10.326;2023-04-06T02:29:10;9.90;;;3.30;;
59880;SDS011;45751;51.380;10.326;2023-04-06T02:31:37;7.10;;;2.92;;
59880;SDS011;45751;51.380;10.326;2023-04-06T02:34:06;8.27;;;2.40;;
59880;SDS011;45751;51.380;10.326;2023-04-06T02:36:40;9.30;;;4.45;;
59880;SDS011;45751;51.380;10.326;2023-04-06T02:39:07;7.55;;;3.42;;
59880;SDS011;45751;51.380;10.326;2023-04-06T02:41:35;9.05;;;3.70;;
59880;SDS011;45751;51.380;10.326;2023-04-06T02:44:03;8.02;;;2.80;;
59880;SDS011;45751;51.380;10.326;2023-04-06T02:46:37;9.02;;;3.50;;
59880;SDS011;45751;51.380;10.326;2023-04-06T02:49:04;7.25;;;3.20;;
59880;SDS011;45751;51.380;10.326;2023-04-06T02:51:33;9.95;;;3.05;;
59880;SDS011;45751;51.380;10.326;2023-04-06T02:54:26;6.13;;;2.38;;
59880;SDS011;45751;51.380;10.326;2023-04-06T02:56:53;6.97;;;2.53;;
59880;SDS011;45751;51.380;10.326;2023-04-06T02:59:23;9.88;;;4.10;;
59880;SDS011;45751;51.380;10.326;2023-04-06T03:02:02;7.13;;;3.53;;
59880;SDS011;45751;51.380;10.326;2023-04-06T03:04:29;7.13;;;3.15;;
59880;SDS011;45751;51.380;10.326;2023-04-06T03:06:58;7.43;;;2.00;;
59880;SDS011;45751;51.380;10.326;2023-04-06T03:09:36;9.38;;;3.28;;
59880;SDS011;45751;51.380;10.326;2023-04-06T03:12:05;8.82;;;2.92;;
59880;SDS011;45751;51.380;10.326;2023-04-06T03:14:49;7.65;;;2.85;;
59880;SDS011;45751;51.380;10.326;2023-04-06T03:17:16;7.47;;;3.10;;
59880;SDS011;45751;51.380;10.326;2023-04-06T03:19:44;8.00;;;3.58;;
59880;SDS011;45751;51.380;10.326;2023-04-06T03:22:11;8.57;;;3.50;;
59880;SDS011;45751;51.380;10.326;2023-04-06T03:24:38;8.50;;;3.95;;
59880;SDS011;45751;51.380;10.326;2023-04-06T03:27:05;7.00;;;2.92;;
59880;SDS011;45751;51.380;10.326;2023-04-06T03:29:33;7.78;;;3.42;;
59880;SDS011;45751;51.380;10.326;2023-04-06T03:32:00;9.68;;;3.30;;
59880;SDS011;45751;51.380;10.326;2023-04-06T03:34:35;9.50;;;2.83;;
59880;SDS011;45751;51.380;10.326;2023-04-06T03:37:02;8.13;;;2.50;;
59880;SDS011;45751;51.380;10.326;2023-04-06T03:39:40;8.77;;;3.25;;
59880;SDS011;45751;51.380;10.326;2023-04-06T03:42:09;9.07;;;3.40;;
59880;SDS011;45751;51.380;10.326;2023-04-06T03:44:43;10.27;;;4.05;;
59880;SDS011;45751;51.380;10.326;2023-04-06T03:47:10;10.95;;;3.85;;
59880;SDS011;45751;51.380;10.326;2023-04-06T03:49:36;7.30;;;2.53;;
59880;SDS011;45751;51.380;10.326;2023-04-06T03:52:08;7.70;;;3.08;;
59880;SDS011;45751;51.380;10.326;2023-04-06T03:54:34;6.28;;;3.05;;
59880;SDS011;45751;51.380;10.326;2023-04-06T03:57:03;6.50;;;2.80;;
59880;SDS011;45751;51.380;10.326;2023-04-06T03:59:30;7.60;;;2.67;;
59880;SDS011;45751;51.380;10.326;2023-04-06T04:01:58;9.48;;;2.58;;
59880;SDS011;45751;51.380;10.326;2023-04-06T04:04:25;8.02;;;2.80;;
59880;SDS011;45751;51.380;10.326;2023-04-06T04:06:51;5.63;;;2.47;;
59880;SDS011;45751;51.380;10.326;2023-04-06T04:09:18;7.78;;;3.80;;
59880;SDS011;45751;51.380;10.326;2023-04-06T04:11:45;7.03;;;2.60;;
59880;SDS011;45751;51.380;10.326;2023-04-06T04:14:12;9.20;;;3.95;;
59880;SDS011;45751;51.380;10.326;2023-04-06T04:16:39;9.48;;;3.05;;
59880;SDS011;45751;51.380;10.326;2023-04-06T04:19:08;7.13;;;2.33;;
59880;SDS011;45751;51.380;10.326;2023-04-06T04:21:42;11.88;;;3.85;;
59880;SDS011;45751;51.380;10.326;2023-04-06T04:24:13;9.13;;;3.15;;
59880;SDS011;45751;51.380;10.326;2023-04-06T04:26:40;6.13;;;2.97;;
59880;SDS011;45751;51.380;10.326;2023-04-06T04:29:07;7.03;;;3.10;;
59880;SDS011;45751;51.380;10.326;2023-04-06T04:31:37;9.05;;;2.83;;
59880;SDS011;45751;51.380;10.326;2023-04-06T04:34:12;7.15;;;2.53;;
59880;SDS011;45751;51.380;10.326;2023-04-06T04:36:39;8.63;;;2.92;;
59880;SDS011;45751;51.380;10.326;2023-04-06T04:39:12;8.93;;;2.95;;
59880;SDS011;45751;51.380;10.326;2023-04-06T04:41:43;6.95;;;2.58;;
59880;SDS011;45751;51.380;10.326;2023-04-06T04:44:11;7.93;;;2.95;;
59880;SDS011;45751;51.380;10.326;2023-04-06T04:46:38;7.70;;;3.38;;
59880;SDS011;45751;51.380;10.326;2023-04-06T04:49:06;7.57;;;2.63;;
59880;SDS011;45751;51.380;10.326;2023-04-06T04:51:33;9.10;;;3.78;;
59880;SDS011;45751;51.380;10.326;2023-04-06T04:54:10;7.78;;;2.80;;
59880;SDS011;45751;51.380;10.326;2023-04-06T04:56:39;7.32;;;2.78;;
59880;SDS011;45751;51.380;10.326;2023-04-06T04:59:17;8.48;;;3.58;;
59880;SDS011;45751;51.380;10.326;2023-04-06T05:01:54;8.75;;;3.65;;
59880;SDS011;45751;51.380;10.326;2023-04-06T05:04:29;6.22;;;2.47;;
59880;SDS011;45751;51.380;10.326;2023-04-06T05:07:03;6.68;;;2.60;;
59880;SDS011;45751;51.380;10.326;2023-04-06T05:09:37;7.43;;;2.92;;
59880;SDS011;45751;51.380;10.326;2023-04-06T05:12:04;8.52;;;3.63;;
59880;SDS011;45751;51.380;10.326;2023-04-06T05:14:37;8.43;;;3.17;;
59880;SDS011;45751;51.380;10.326;2023-04-06T05:17:10;14.35;;;4.18;;
59880;SDS011;45751;51.380;10.326;2023-04-06T05:19:38;9.38;;;3.70;;
59880;SDS011;45751;51.380;10.326;2023-04-06T05:22:05;8.77;;;3.15;;
59880;SDS011;45751;51.380;10.326;2023-04-06T05:24:35;6.40;;;2.17;;
59880;SDS011;45751;51.380;10.326;2023-04-06T05:27:05;6.22;;;3.17;;
59880;SDS011;45751;51.380;10.326;2023-04-06T05:29:33;13.15;;;5.15;;
59880;SDS011;45751;51.380;10.326;2023-04-06T05:32:01;10.02;;;4.82;;
59880;SDS011;45751;51.380;10.326;2023-04-06T05:34:28;17.13;;;7.10;;
59880;SDS011;45751;51.380;10.326;2023-04-06T05:36:57;19.70;;;8.48;;
59880;SDS011;45751;51.380;10.326;2023-04-06T05:39:24;9.88;;;4.75;;
59880;SDS011;45751;51.380;10.326;2023-04-06T05:41:52;10.10;;;3.42;;
59880;SDS011;45751;51.380;10.326;2023-04-06T05:44:32;6.20;;;3.13;;
59880;SDS011;45751;51.380;10.326;2023-04-06T05:47:05;8.25;;;3.50;;
59880;SDS011;45751;51.380;10.326;2023-04-06T05:49:34;9.85;;;3.42;;
59880;SDS011;45751;51.380;10.326;2023-04-06T05:52:02;9.88;;;3.88;;
59880;SDS011;45751;51.380;10.326;2023-04-06T05:54:31;10.48;;;4.45;;
59880;SDS011;45751;51.380;10.326;2023-04-06T05:57:01;9.05;;;3.55;;
59880;SDS011;45751;51.380;10.326;2023-04-06T05:59:30;24.52;;;12.90;;
59880;SDS011;45751;51.380;10.326;2023-04-06T06:01:58;32.92;;;14.48;;
59880;SDS011;45751;51.380;10.326;2023-04-06T06:04:25;16.75;;;9.68;;
59880;SDS011;45751;51.380;10.326;2023-04-06T06:06:53;16.45;;;5.07;;
59880;SDS011;45751;51.380;10.326;2023-04-06T06:09:30;10.95;;;4.25;;
59880;SDS011;45751;51.380;10.326;2023-04-06T06:12:13;10.07;;;3.83;;
59880;SDS011;45751;51.380;10.326;2023-04-06T06:14:40;8.98;;;3.80;;
59880;SDS011;45751;51.380;10.326;2023-04-06T06:17:09;8.23;;;4.40;;
59880;SDS011;45751;51.380;10.326;2023-04-06T06:19:36;8.50;;;3.90;;
59880;SDS011;45751;51.380;10.326;2023-04-06T06:22:06;8.98;;;3.28;;
59880;SDS011;45751;51.380;10.326;2023-04-06T06:24:37;9.35;;;4.55;;
59880;SDS011;45751;51.380;10.326;2023-04-06T06:27:05;8.02;;;4.10;;
59880;SDS011;45751;51.380;10.326;2023-04-06T06:29:35;8.75;;;3.67;;
59880;SDS011;45751;51.380;10.326;2023-04-06T06:32:02;9.55;;;3.63;;
59880;SDS011;45751;51.380;10.326;2023-04-06T06:34:30;5.30;;;2.35;;
59880;SDS011;45751;51.380;10.326;2023-04-06T06:37:01;10.07;;;3.50;;
59880;SDS011;45751;51.380;10.326;2023-04-06T06:39:29;12.43;;;4.10;;
59880;SDS011;45751;51.380;10.326;2023-04-06T06:41:56;16.52;;;8.20;;
59880;SDS011;45751;51.380;10.326;2023-04-06T06:44:44;11.57;;;4.97;;
59880;SDS011;45751;51.380;10.326;2023-04-06T06:47:13;7.45;;;3.63;;
59880;SDS011;45751;51.380;10.326;2023-04-06T06:49:41;10.32;;;3.55;;
59880;SDS011;45751;51.380;10.326;2023-04-06T06:52:10;11.43;;;3.70;;
59880;SDS011;45751;51.380;10.326;2023-04-06T06:54:37;11.18;;;3.63;;
59880;SDS011;45751;51.380;10.326;2023-04-06T06:57:04;10.80;;;4.53;;
59880;SDS011;45751;51.380;10.326;2023-04-06T06:59:32;6.80;;;2.95;;
59880;SDS011;45751;51.380;10.326;2023-04-06T07:01:59;7.75;;;3.42;;
59880;SDS011;45751;51.380;10.326;2023-04-06T07:04:26;7.57;;;3.38;;
59880;SDS011;45751;51.380;10.326;2023-04-06T07:06:53;11.25;;;4.10;;
59880;SDS011;45751;51.380;10.326;2023-04-06T07:09:20;5.90;;;2.65;;
59880;SDS011;45751;51.380;10.326;2023-04-06T07:11:48;9.98;;;3.92;;
59880;SDS011;45751;51.380;10.326;2023-04-06T07:14:15;9.48;;;4.28;;
59880;SDS011;45751;51.380;10.326;2023-04-06T07:16:43;13.57;;;5.88;;
59880;SDS011;45751;51.380;10.326;2023-04-06T07:19:11;17.23;;;7.90;;
59880;SDS011;45751;51.380;10.326;2023-04-06T07:21:39;13.73;;;6.13;;
59880;SDS011;45751;51.380;10.326;2023-04-06T07:24:05;9.20;;;3.55;;
59880;SDS011;45751;51.380;10.326;2023-04-06T07:26:33;8.50;;;3.38;;
59880;SDS011;45751;51.380;10.326;2023-04-06T07:29:00;10.95;;;3.25;;
59880;SDS011;45751;51.380;10.326;2023-04-06T07:31:27;8.50;;;4.00;;
59880;SDS011;45751;51.380;10.326;2023-04-06T07:33:55;9.95;;;4.50;;
59880;SDS011;45751;51.380;10.326;2023-04-06T07:36:23;12.38;;;3.80;;
59880;SDS011;45751;51.380;10.326;2023-04-06T07:38:50;7.53;;;3.45;;
59880;SDS011;45751;51.380;10.326;2023-04-06T07:41:17;9.07;;;3.90;;
59880;SDS011;45751;51.380;10.326;2023-04-06T07:43:48;8.68;;;4.03;;
59880;SDS011;45751;51.380;10.326;2023-04-06T07:46:15;7.28;;;2.63;;
59880;SDS011;45751;51.380;10.326;2023-04-06T07:48:43;14.05;;;6.18;;
59880;SDS011;45751;51.380;10.326;2023-04-06T07:51:10;19.10;;;7.95;;
59880;SDS011;45751;51.380;10.326;2023-04-06T07:53:42;11.93;;;5.03;;
59880;SDS011;45751;51.380;10.326;2023-04-06T07:56:10;10.68;;;4.22;;
59880;SDS011;45751;51.380;10.326;2023-04-06T07:58:38;9.02;;;3.72;;
59880;SDS011;45751;51.380;10.326;2023-04-06T08:01:05;8.88;;;3.72;;
59880;SDS011;45751;51.380;10.326;2023-04-06T08:03:35;11.95;;;4.78;;
59880;SDS011;45751;51.380;10.326;2023-04-06T08:08:32;9.20;;;4.72;;
59880;SDS011;45751;51.380;10.326;2023-04-06T08:10:59;8.55;;;4.07;;
59880;SDS011;45751;51.380;10.326;2023-04-06T08:13:27;13.85;;;6.47;;
59880;SDS011;45751;51.380;10.326;2023-04-06T08:15:55;17.23;;;5.80;;
59880;SDS011;45751;51.380;10.326;2023-04-06T08:18:24;11.80;;;4.68;;
59880;SDS011;45751;51.380;10.326;2023-04-06T08:20:50;12.82;;;4.53;;
59880;SDS011;45751;51.380;10.326;2023-04-06T08:23:18;6.70;;;2.72;;
59880;SDS011;45751;51.380;10.326;2023-04-06T08:25:44;11.48;;;4.97;;
59880;SDS011;45751;51.380;10.326;2023-04-06T08:28:11;8.57;;;3.45;;
59880;SDS011;45751;51.380;10.326;2023-04-06T08:30:42;11.02;;;4.97;;
59880;SDS011;45751;51.380;10.326;2023-04-06T08:33:09;10.07;;;4.00;;
59880;SDS011;45751;51.380;10.326;2023-04-06T08:35:36;14.65;;;5.45;;
59880;SDS011;45751;51.380;10.326;2023-04-06T08:38:03;9.40;;;3.78;;
59880;SDS011;45751;51.380;10.326;2023-04-06T08:40:35;9.82;;;4.50;;
59880;SDS011;45751;51.380;10.326;2023-04-06T08:43:06;11.25;;;4.35;;
59880;SDS011;45751;51.380;10.326;2023-04-06T08:45:39;10.48;;;5.35;;
59880;SDS011;45751;51.380;10.326;2023-04-06T08:48:07;10.02;;;4.28;;
59880;SDS011;45751;51.380;10.326;2023-04-06T08:50:35;11.48;;;4.85;;
59880;SDS011;45751;51.380;10.326;2023-04-06T08:53:04;10.80;;;4.47;;
59880;SDS011;45751;51.380;10.326;2023-04-06T08:55:32;10.02;;;4.38;;
59880;SDS011;45751;51.380;10.326;2023-04-06T08:58:00;12.45;;;4.43;;
59880;SDS011;45751;51.380;10.326;2023-04-06T09:00:27;11.82;;;5.13;;
59880;SDS011;45751;51.380;10.326;2023-04-06T09:02:55;8.68;;;4.15;;
59880;SDS011;45751;51.380;10.326;2023-04-06T09:05:23;10.60;;;4.15;;
59880;SDS011;45751;51.380;10.326;2023-04-06T09:07:52;10.52;;;4.03;;
59880;SDS011;45751;51.380;10.326;2023-04-06T09:10:19;14.05;;;4.85;;
59880;SDS011;45751;51.380;10.326;2023-04-06T09:12:46;10.70;;;3.97;;
59880;SDS011;45751;51.380;10.326;2023-04-06T09:15:20;11.60;;;4.35;;
59880;SDS011;45751;51.380;10.326;2023-04-06T09:17:50;9.27;;;4.25;;
59880;SDS011;45751;51.380;10.326;2023-04-06T09:20:23;13.48;;;4.80;;
59880;SDS011;45751;51.380;10.326;2023-04-06T09:22:57;12.77;;;4.78;;
59880;SDS011;45751;51.380;10.326;2023-04-06T09:25:24;13.98;;;6.57;;
59880;SDS011;45751;51.380;10.326;2023-04-06T09:28:00;12.02;;;4.20;;
59880;SDS011;45751;51.380;10.326;2023-04-06T09:30:29;12.80;;;5.95;;
59880;SDS011;45751;51.380;10.326;2023-04-06T09:32:56;10.57;;;5.05;;
59880;SDS011;45751;51.380;10.326;2023-04-06T09:35:25;10.55;;;5.32;;
59880;SDS011;45751;51.380;10.326;2023-04-06T09:37:53;14.55;;;6.38;;
59880;SDS011;45751;51.380;10.326;2023-04-06T09:40:21;12.70;;;4.88;;
59880;SDS011;45751;51.380;10.326;2023-04-06T09:42:49;9.85;;;4.70;;
59880;SDS011;45751;51.380;10.326;2023-04-06T09:45:19;14.83;;;5.30;;
59880;SDS011;45751;51.380;10.326;2023-04-06T09:47:47;13.30;;;5.57;;
59880;SDS011;45751;51.380;10.326;2023-04-06T09:50:18;11.07;;;4.65;;
59880;SDS011;45751;51.380;10.326;2023-04-06T09:52:47;9.73;;;5.30;;
59880;SDS011;45751;51.380;10.326;2023-04-06T09:55:28;11.32;;;4.85;;
59880;SDS011;45751;51.380;10.326;2023-04-06T09:58:03;13.13;;;5.10;;
59880;SDS011;45751;51.380;10.326;2023-04-06T10:00:40;12.02;;;5.10;;
59880;SDS011;45751;51.380;10.326;2023-04-06T10:06:05;11.02;;;5.13;;
59880;SDS011;45751;51.380;10.326;2023-04-06T10:08:37;15.93;;;6.22;;
59880;SDS011;45751;51.380;10.326;2023-04-06T10:11:08;14.68;;;5.88;;
59880;SDS011;45751;51.380;10.326;2023-04-06T10:13:35;16.10;;;5.93;;
59880;SDS011;45751;51.380;10.326;2023-04-06T10:16:03;14.77;;;5.25;;
59880;SDS011;45751;51.380;10.326;2023-04-06T10:18:32;13.25;;;5.65;;
59880;SDS011;45751;51.380;10.326;2023-04-06T10:26:00;12.38;;;5.82;;
59880;SDS011;45751;51.380;10.326;2023-04-06T10:28:32;12.07;;;5.22;;
59880;SDS011;45751;51.380;10.326;2023-04-06T10:31:04;13.02;;;5.93;;
59880;SDS011;45751;51.380;10.326;2023-04-06T10:33:32;13.75;;;5.78;;
59880;SDS011;45751;51.380;10.326;2023-04-06T10:36:12;11.90;;;5.53;;
59880;SDS011;45751;51.380;10.326;2023-04-06T10:38:41;14.13;;;6.22;;
59880;SDS011;45751;51.380;10.326;2023-04-06T10:41:10;13.40;;;6.30;;
59880;SDS011;45751;51.380;10.326;2023-04-06T10:43:41;14.68;;;5.95;;
59880;SDS011;45751;51.380;10.326;2023-04-06T10:46:09;10.63;;;5.47;;
59880;SDS011;45751;51.380;10.326;2023-04-06T10:51:16;13.63;;;5.57;;
59880;SDS011;45751;51.380;10.326;2023-04-06T10:53:45;14.20;;;6.05;;
59880;SDS011;45751;51.380;10.326;2023-04-06T10:56:15;16.83;;;5.55;;
59880;SDS011;45751;51.380;10.326;2023-04-06T10:58:44;14.77;;;6.15;;
59880;SDS011;45751;51.380;10.326;2023-04-06T11:01:13;13.82;;;6.50;;
59880;SDS011;45751;51.380;10.326;2023-04-06T11:03:46;17.27;;;5.82;;
59880;SDS011;45751;51.380;10.326;2023-04-06T11:06:17;13.80;;;5.60;;
59880;SDS011;45751;51.380;10.326;2023-04-06T11:08:49;13.00;;;4.95;;
59880;SDS011;45751;51.380;10.326;2023-04-06T11:11:18;10.05;;;4.63;;
59880;SDS011;45751;51.380;10.326;2023-04-06T11:13:51;12.38;;;5.85;;
59880;SDS011;45751;51.380;10.326;2023-04-06T11:16:26;15.10;;;6.35;;
59880;SDS011;45751;51.380;10.326;2023-04-06T11:21:45;11.23;;;5.50;;
59880;SDS011;45751;51.380;10.326;2023-04-06T11:29:15;13.63;;;6.05;;
59880;SDS011;45751;51.380;10.326;2023-04-06T11:31:47;15.40;;;6.60;;
59880;SDS011;45751;51.380;10.326;2023-04-06T11:34:17;13.57;;;6.22;;
59880;SDS011;45751;51.380;10.326;2023-04-06T11:36:45;15.23;;;5.85;;
59880;SDS011;45751;51.380;10.326;2023-04-06T11:39:18;14.82;;;6.90;;
59880;SDS011;45751;51.380;10.326;2023-04-06T11:41:49;15.90;;;6.80;;
59880;SDS011;45751;51.380;10.326;2023-04-06T11:47:15;16.35;;;5.95;;
59880;SDS011;45751;51.380;10.326;2023-04-06T11:49:44;18.77;;;6.60;;
59880;SDS011;45751;51.380;10.326;2023-04-06T11:54:46;17.73;;;8.10;;
59880;SDS011;45751;51.380;10.326;2023-04-06T11:57:14;13.82;;;5.95;;
59880;SDS011;45751;51.380;10.326;2023-04-06T11:59:44;14.15;;;6.53;;
59880;SDS011;45751;51.380;10.326;2023-04-06T12:02:11;19.50;;;6.55;;
59880;SDS011;45751;51.380;10.326;2023-04-06T12:04:38;14.15;;;6.38;;
59880;SDS011;45751;51.380;10.326;2023-04-06T12:07:05;14.60;;;7.15;;
59880;SDS011;45751;51.380;10.326;2023-04-06T12:09:32;15.52;;;6.57;;
59880;SDS011;45751;51.380;10.326;2023-04-06T12:12:01;14.82;;;6.53;;
59880;SDS011;45751;51.380;10.326;2023-04-06T12:14:28;20.60;;;8.02;;
59880;SDS011;45751;51.380;10.326;2023-04-06T12:16:57;18.17;;;8.55;;
59880;SDS011;45751;51.380;10.326;2023-04-06T12:19:24;17.50;;;6.43;;
59880;SDS011;45751;51.380;10.326;2023-04-06T12:21:52;17.13;;;7.40;;
59880;SDS011;45751;51.380;10.326;2023-04-06T12:24:23;18.05;;;7.88;;
59880;SDS011;45751;51.380;10.326;2023-04-06T12:26:51;19.38;;;7.78;;
59880;SDS011;45751;51.380;10.326;2023-04-06T12:29:28;16.42;;;7.25;;
59880;SDS011;45751;51.380;10.326;2023-04-06T12:31:55;25.73;;;8.40;;
59880;SDS011;45751;51.380;10.326;2023-04-06T12:34:22;16.30;;;7.75;;
59880;SDS011;45751;51.380;10.326;2023-04-06T12:36:49;25.70;;;7.47;;
59880;SDS011;45751;51.380;10.326;2023-04-06T12:39:18;18.30;;;7.85;;
59880;SDS011;45751;51.380;10.326;2023-04-06T12:41:47;16.42;;;7.80;;
59880;SDS011;45751;51.380;10.326;2023-04-06T12:44:14;18.80;;;7.25;;
59880;SDS011;45751;51.380;10.326;2023-04-06T12:46:41;19.02;;;8.50;;
59880;SDS011;45751;51.380;10.326;2023-04-06T12:49:09;15.85;;;7.68;;
59880;SDS011;45751;51.380;10.326;2023-04-06T12:51:36;18.90;;;8.02;;
59880;SDS011;45751;51.380;10.326;2023-04-06T12:54:03;19.60;;;8.13;;
59880;SDS011;45751;51.380;10.326;2023-04-06T12:56:30;18.70;;;7.30;;
59880;SDS011;45751;51.380;10.326;2023-04-06T12:58:57;19.40;;;7.75;;
59880;SDS011;45751;51.380;10.326;2023-04-06T13:01:25;20.95;;;8.80;;
59880;SDS011;45751;51.380;10.326;2023-04-06T13:03:55;19.02;;;8.20;;
59880;SDS011;45751;51.380;10.326;2023-04-06T13:06:23;17.63;;;7.20;;
59880;SDS011;45751;51.380;10.326;2023-04-06T13:08:54;20.40;;;8.20;;
59880;SDS011;45751;51.380;10.326;2023-04-06T13:11:21;20.08;;;7.20;;
59880;SDS011;45751;51.380;10.326;2023-04-06T13:13:53;17.90;;;7.55;;
59880;SDS011;45751;51.380;10.326;2023-04-06T13:16:20;19.65;;;8.50;;
59880;SDS011;45751;51.380;10.326;2023-04-06T13:18:47;21.77;;;8.15;;
59880;SDS011;45751;51.380;10.326;2023-04-06T13:21:14;23.65;;;7.72;;
59880;SDS011;45751;51.380;10.326;2023-04-06T13:23:42;23.58;;;9.95;;
59880;SDS011;45751;51.380;10.326;2023-04-06T13:26:09;21.33;;;8.45;;
59880;SDS011;45751;51.380;10.326;2023-04-06T13:28:37;27.02;;;8.93;;
59880;SDS011;45751;51.380;10.326;2023-04-06T13:31:07;23.60;;;10.13;;
59880;SDS011;45751;51.380;10.326;2023-04-06T13:33:35;19.85;;;8.60;;
59880;SDS011;45751;51.380;10.326;2023-04-06T13:36:02;22.85;;;9.27;;
59880;SDS011;45751;51.380;10.326;2023-04-06T13:38:30;23.58;;;8.90;;
59880;SDS011;45751;51.380;10.326;2023-04-06T13:40:57;22.45;;;7.88;;
59880;SDS011;45751;51.380;10.326;2023-04-06T13:43:24;23.27;;;9.85;;
59880;SDS011;45751;51.380;10.326;2023-04-06T13:45:53;23.73;;;8.90;;
59880;SDS011;45751;51.380;10.326;2023-04-06T13:48:21;22.65;;;8.77;;
59880;SDS011;45751;51.380;10.326;2023-04-06T13:50:48;19.33;;;7.55;;
59880;SDS011;45751;51.380;10.326;2023-04-06T13:53:16;24.40;;;9.18;;
59880;SDS011;45751;51.380;10.326;2023-04-06T13:55:43;18.15;;;8.05;;
59880;SDS011;45751;51.380;10.326;2023-04-06T13:58:10;22.00;;;9.10;;
59880;SDS011;45751;51.380;10.326;2023-04-06T14:00:37;25.65;;;11.45;;
59880;SDS011;45751;51.380;10.326;2023-04-06T14:03:05;23.02;;;10.00;;
59880;SDS011;45751;51.380;10.326;2023-04-06T14:05:32;20.92;;;9.00;;
59880;SDS011;45751;51.380;10.326;2023-04-06T14:08:00;31.25;;;10.52;;
59880;SDS011;45751;51.380;10.326;2023-04-06T14:10:27;23.05;;;9.07;;
59880;SDS011;45751;51.380;10.326;2023-04-06T14:12:54;24.85;;;9.07;;
59880;SDS011;45751;51.380;10.326;2023-04-06T14:15:22;21.75;;;8.95;;
59880;SDS011;45751;51.380;10.326;2023-04-06T14:17:50;21.20;;;9.63;;
59880;SDS011;45751;51.380;10.326;2023-04-06T14:20:18;31.40;;;12.40;;
59880;SDS011;45751;51.380;10.326;2023-04-06T14:22:45;32.60;;;13.35;;
59880;SDS011;45751;51.380;10.326;2023-04-06T14:25:13;28.00;;;9.63;;
59880;SDS011;45751;51.380;10.326;2023-04-06T14:27:40;22.77;;;9.70;;
59880;SDS011;45751;51.380;10.326;2023-04-06T14:30:07;23.63;;;9.63;;
59880;SDS011;45751;51.380;10.326;2023-04-06T14:32:34;20.90;;;9.00;;
59880;SDS011;45751;51.380;10.326;2023-04-06T14:35:03;22.58;;;8.45;;
59880;SDS011;45751;51.380;10.326;2023-04-06T14:37:33;26.45;;;9.63;;
59880;SDS011;45751;51.380;10.326;2023-04-06T14:40:01;27.55;;;9.85;;
59880;SDS011;45751;51.380;10.326;2023-04-06T14:42:29;22.92;;;8.70;;
59880;SDS011;45751;51.380;10.326;2023-04-06T14:44:55;24.38;;;9.40;;
59880;SDS011;45751;51.380;10.326;2023-04-06T14:47:22;21.75;;;10.02;;
59880;SDS011;45751;51.380;10.326;2023-04-06T14:49:50;21.73;;;8.63;;
59880;SDS011;45751;51.380;10.326;2023-04-06T14:52:18;20.48;;;7.50;;
59880;SDS011;45751;51.380;10.326;2023-04-06T14:54:45;23.63;;;9.38;;
59880;SDS011;45751;51.380;10.326;2023-04-06T14:57:12;25.40;;;8.98;;
59880;SDS011;45751;51.380;10.326;2023-04-06T14:59:39;22.45;;;8.98;;
59880;SDS011;45751;51.380;10.326;2023-04-06T15:02:06;23.63;;;9.68;;
59880;SDS011;45751;51.380;10.326;2023-04-06T15:04:34;23.13;;;9.10;;
59880;SDS011;45751;51.380;10.326;2023-04-06T15:07:02;19.33;;;8.07;;